Georgetown, DE

8:35 PM EDT on May 06, 2015 (GMT -0400)
Georgetown Admin | | Change Station
CLOSE
Current Station
Personal Weather Station
Location: Georgetown, DE
Elevation: 56 ft
Nearby Weather Stations

Elev 56 ft 38.66 °N, 75.38 °W | Updated 1 minute ago

Clear
Clear
56.3 °F
Feels Like 56.3 °F
N
6.5
Wind Variable Wind from ENE
Gusts 7.0 mph

Today
High -- | Low -- °F
--% Chance of Precip.
Yesterday
High -- | Low -- °F
Precip. -- in
5:58 AM 7:58 PM
Waning Gibbous, 91% visible
Pressure 30.21 in
Visibility 10.0 miles
Clouds Clear
Dew Point 50 °F
Humidity 82%
Rainfall 0.00 in
Snow Depth Not available.
UV 0 out of 12
Pollen 6.70 out of 12
Air Quality Not available.
Flu Activity Sporadic
METAR KGED 062354Z AUTO 13011KT 10SM CLR 14/11 A3021 RMK AO2 SLP229 T01440106 10233 20144 51004

More Conditions Fewer Conditions

Pressure 30.21 in
Visibility 10.0 miles
Clouds Clear
Dew Point 50 °F
Humidity 82%
Rainfall 0.00 in
Snow Depth Not available.
UV 0 out of 12
Pollen 6.70 out of 12
Air Quality Not available.
Flu Activity Sporadic
METAR KGED 062354Z AUTO 13011KT 10SM CLR 14/11 A3021 RMK AO2 SLP229 T01440106 10233 20144 51004

More Conditions Fewer Conditions

10-Day Weather Forecast

Almanac

Astronomy

May. 06, 2015 Rise Set
Actual Time
Civil Twilight
Nautical Twilight
Astronomical Twilight
Moon
Length of Visible Light
Length of Day
Tomorrow will be .
, % of the Moon is Illuminated

Today's Extremes

State Highs State Lows

Community

WunderPhotos

Upload Photos

1,819,052 photos uploaded!

WunderBlogs® & News

Nearby

Air Quality

  Air Quality AQ Index Pollutant
Not available.

Snow Depth

Station Depth Elevation

Earthquake Activity

City Distance Mag. Time & Date
Minimum magnitude displayed is 2.5.

Coastal Water Temperatures

Place Temperature

Stations

Nearby Weather Stations

Station Location Temp. Windchill Dew Point Humidity Wind Precip. Elev Updated Type